createdAt,value
2022-10-11T00:02:07.550Z,10.00
2022-10-11T00:04:36.875Z,9.90
2022-10-11T00:07:04.997Z,10.00
2022-10-11T00:09:32.975Z,9.80
2022-10-11T00:12:01.043Z,10.00
2022-10-11T00:14:29.447Z,10.00
2022-10-11T00:16:57.378Z,10.00
2022-10-11T00:19:25.313Z,9.90
2022-10-11T00:21:54.637Z,9.90
2022-10-11T00:24:22.756Z,9.90
2022-10-11T00:26:50.790Z,10.00
2022-10-11T00:29:18.748Z,10.00
2022-10-11T00:31:46.704Z,10.00
2022-10-11T00:34:17.111Z,10.00
2022-10-11T00:36:45.612Z,10.00
2022-10-11T00:39:15.129Z,10.00
2022-10-11T00:41:43.301Z,10.00
2022-10-11T00:44:13.862Z,10.10
2022-10-11T00:46:44.296Z,10.00
2022-10-11T00:49:20.533Z,9.80
2022-10-11T00:51:53.262Z,9.80
2022-10-11T00:54:26.495Z,9.80
2022-10-11T00:56:59.470Z,9.70
2022-10-11T00:59:31.576Z,9.70
2022-10-11T01:01:59.675Z,9.70
2022-10-11T01:04:27.935Z,9.70
2022-10-11T01:06:56.731Z,9.60
2022-10-11T01:09:27.263Z,9.60
2022-10-11T01:11:59.035Z,9.50
2022-10-11T01:14:48.010Z,9.50
2022-10-11T01:17:25.394Z,9.40
2022-10-11T01:20:13.855Z,9.30
2022-10-11T01:23:15.444Z,9.20
2022-10-11T01:25:53.421Z,9.00
2022-10-11T01:28:41.767Z,9.10
2022-10-11T01:31:20.751Z,9.10
2022-10-11T01:33:55.562Z,9.20
2022-10-11T01:36:32.423Z,9.20
2022-10-11T01:39:05.208Z,9.30
2022-10-11T01:41:40.978Z,9.30
2022-10-11T01:44:10.295Z,9.20
2022-10-11T01:46:39.816Z,9.20
2022-10-11T01:49:07.780Z,9.10
2022-10-11T01:51:39.004Z,9.00
2022-10-11T01:54:39.273Z,8.90
2022-10-11T01:57:43.296Z,9.00
2022-10-11T02:00:15.910Z,8.80
2022-10-11T02:03:06.801Z,8.80
2022-10-11T02:05:43.871Z,8.70
2022-10-11T02:08:20.059Z,8.60
2022-10-11T02:10:52.942Z,8.50
2022-10-11T02:13:26.819Z,8.50
2022-10-11T02:15:57.075Z,8.40
2022-10-11T02:18:32.092Z,8.20
2022-10-11T02:21:03.481Z,8.30
2022-10-11T02:23:36.246Z,8.30
2022-10-11T02:26:07.191Z,8.20
2022-10-11T02:28:38.803Z,8.20
2022-10-11T02:31:09.186Z,8.10
2022-10-11T02:33:45.011Z,7.90
2022-10-11T02:36:18.198Z,7.70
2022-10-11T02:38:50.867Z,7.50
2022-10-11T02:41:26.300Z,7.40
2022-10-11T02:43:59.971Z,7.40
2022-10-11T02:46:30.521Z,7.40
2022-10-11T02:49:00.823Z,7.40
2022-10-11T02:51:31.666Z,7.30
2022-10-11T02:53:59.715Z,7.30
2022-10-11T02:56:27.659Z,7.30
2022-10-11T02:58:55.682Z,7.50
2022-10-11T03:01:23.686Z,7.60
2022-10-11T03:03:51.724Z,7.60
2022-10-11T03:06:21.928Z,7.60
2022-10-11T03:08:49.892Z,7.50
2022-10-11T03:11:17.890Z,7.50
2022-10-11T03:13:46.111Z,7.50
2022-10-11T03:16:14.844Z,7.60
2022-10-11T03:18:43.072Z,7.50
2022-10-11T03:21:11.421Z,7.40
2022-10-11T03:23:42.487Z,7.30
2022-10-11T03:26:10.659Z,7.10
2022-10-11T03:28:38.903Z,7.10
2022-10-11T03:31:07.175Z,7.10
2022-10-11T03:33:35.167Z,7.10
2022-10-11T03:36:04.017Z,7.10
2022-10-11T03:38:32.147Z,7.10
2022-10-11T03:41:01.458Z,7.00
2022-10-11T03:43:29.383Z,7.10
2022-10-11T03:45:57.347Z,6.90
2022-10-11T03:48:25.347Z,6.70
2022-10-11T03:50:53.575Z,6.70
2022-10-11T03:53:21.598Z,6.50
2022-10-11T03:55:54.072Z,6.60
2022-10-11T03:58:24.311Z,6.50
2022-10-11T04:00:53.827Z,6.50
2022-10-11T04:03:21.943Z,6.50
2022-10-11T04:05:50.050Z,6.60
2022-10-11T04:08:18.087Z,6.60
2022-10-11T04:10:47.306Z,6.70
2022-10-11T04:13:15.811Z,6.70
2022-10-11T04:15:45.490Z,6.60
2022-10-11T04:18:13.863Z,6.70
2022-10-11T04:20:42.763Z,6.70
2022-10-11T04:23:10.915Z,6.80
2022-10-11T04:25:39.833Z,6.80
2022-10-11T04:28:09.287Z,6.70
2022-10-11T04:30:37.384Z,6.70
2022-10-11T04:33:07.446Z,6.70
2022-10-11T04:35:35.472Z,6.70
2022-10-11T04:38:03.798Z,6.70
2022-10-11T04:40:31.828Z,6.60
2022-10-11T04:42:59.783Z,6.40
2022-10-11T04:45:28.019Z,6.50
2022-10-11T04:47:56.078Z,6.40
2022-10-11T04:50:25.406Z,6.10
2022-10-11T04:52:53.448Z,6.20
2022-10-11T04:55:21.434Z,6.20
2022-10-11T04:57:49.378Z,6.10
2022-10-11T05:00:17.875Z,6.20
2022-10-11T05:02:45.851Z,6.20
2022-10-11T05:05:17.392Z,6.20
2022-10-11T05:07:46.694Z,6.20
2022-10-11T05:10:14.916Z,6.00
2022-10-11T05:12:43.037Z,5.90
2022-10-11T05:15:11.925Z,5.80
2022-10-11T05:17:39.975Z,5.50
2022-10-11T05:20:09.085Z,5.60
2022-10-11T05:22:37.076Z,5.70
2022-10-11T05:25:07.211Z,5.60
2022-10-11T05:27:35.367Z,5.50
2022-10-11T05:30:03.380Z,5.60
2022-10-11T05:32:31.465Z,5.60
2022-10-11T05:34:59.658Z,5.50
2022-10-11T05:37:27.809Z,5.50
2022-10-11T05:39:55.805Z,5.40
2022-10-11T05:42:25.200Z,5.40
2022-10-11T05:44:53.171Z,5.40
2022-10-11T05:47:21.126Z,5.40
2022-10-11T05:49:49.118Z,5.50
2022-10-11T05:52:20.397Z,5.40
2022-10-11T05:54:48.570Z,5.40
2022-10-11T05:57:16.552Z,5.50
2022-10-11T05:59:45.903Z,5.60
2022-10-11T06:02:14.578Z,5.70
2022-10-11T06:04:42.666Z,5.70
2022-10-11T06:07:10.611Z,5.70
2022-10-11T06:09:39.634Z,5.80
2022-10-11T06:12:07.966Z,5.70
2022-10-11T06:14:36.933Z,5.60
2022-10-11T06:17:06.449Z,5.60
2022-10-11T06:19:34.615Z,5.70
2022-10-11T06:22:02.603Z,5.70
2022-10-11T06:24:30.580Z,6.00
2022-10-11T06:26:58.712Z,6.30
2022-10-11T06:29:26.858Z,6.40
2022-10-11T06:31:54.821Z,6.50
2022-10-11T06:34:24.424Z,6.50
2022-10-11T06:36:52.740Z,6.80
2022-10-11T06:39:20.802Z,7.00
2022-10-11T06:41:49.091Z,7.40
2022-10-11T06:44:17.764Z,7.50
2022-10-11T06:46:45.714Z,7.70
2022-10-11T06:49:13.832Z,7.90
2022-10-11T06:51:43.152Z,8.30
2022-10-11T06:54:11.252Z,8.70
2022-10-11T06:56:39.238Z,8.80
2022-10-11T06:59:07.583Z,9.20
2022-10-11T07:01:35.627Z,9.50
2022-10-11T07:04:03.670Z,9.50
2022-10-11T07:06:32.289Z,9.60
2022-10-11T07:09:02.349Z,9.70
2022-10-11T07:11:30.459Z,9.60
2022-10-11T07:14:00.051Z,9.60
2022-10-11T07:16:29.640Z,9.70
2022-10-11T07:19:00.969Z,9.80
2022-10-11T07:21:30.070Z,9.80
2022-10-11T07:23:58.131Z,10.10
2022-10-11T07:26:28.056Z,10.50
2022-10-11T07:28:56.156Z,10.40
2022-10-11T07:31:26.171Z,10.60
2022-10-11T07:33:54.394Z,10.80
2022-10-11T07:36:24.372Z,11.10
2022-10-11T07:38:52.511Z,11.40
2022-10-11T07:41:20.725Z,11.50
2022-10-11T07:43:50.982Z,11.60
2022-10-11T07:46:19.363Z,11.70
2022-10-11T07:48:47.513Z,11.80
2022-10-11T07:51:18.572Z,12.00
2022-10-11T07:53:48.593Z,12.10
2022-10-11T07:56:18.588Z,12.30
2022-10-11T07:58:50.483Z,12.40
2022-10-11T08:01:20.809Z,12.50
2022-10-11T08:03:49.402Z,12.70
2022-10-11T08:06:18.952Z,12.90
2022-10-11T08:08:47.295Z,12.90
2022-10-11T08:11:21.928Z,13.00
2022-10-11T08:13:49.917Z,13.10
2022-10-11T08:16:20.144Z,12.70
2022-10-11T08:18:48.420Z,13.00
2022-10-11T08:21:18.559Z,13.00
2022-10-11T08:23:46.844Z,12.90
2022-10-11T08:26:15.502Z,13.20
2022-10-11T08:28:43.679Z,13.00
2022-10-11T08:31:14.029Z,13.40
2022-10-11T08:33:44.103Z,13.60
2022-10-11T08:36:13.069Z,13.70
2022-10-11T08:38:41.414Z,13.80
2022-10-11T08:41:33.041Z,13.90
2022-10-11T08:44:21.254Z,14.00
2022-10-11T08:46:58.184Z,14.20
2022-10-11T08:49:32.558Z,14.30
2022-10-11T08:52:04.636Z,14.10
2022-10-11T08:54:42.651Z,14.20
2022-10-11T08:57:16.049Z,14.30
2022-10-11T08:59:49.487Z,14.50
2022-10-11T09:02:55.494Z,14.60
2022-10-11T09:05:25.523Z,14.60
2022-10-11T09:08:02.299Z,14.70
2022-10-11T09:10:59.759Z,14.80
2022-10-11T09:13:43.659Z,14.80
2022-10-11T09:16:24.930Z,14.70
2022-10-11T09:19:16.218Z,14.50
2022-10-11T09:21:52.957Z,14.60
2022-10-11T09:24:32.906Z,14.70
2022-10-11T09:27:06.576Z,14.40
2022-10-11T09:29:48.205Z,14.60
2022-10-11T09:32:18.727Z,14.70
2022-10-11T09:34:48.140Z,14.80
2022-10-11T09:37:24.383Z,14.70
2022-10-11T09:39:56.902Z,14.50
2022-10-11T09:42:24.970Z,14.50
2022-10-11T09:44:53.408Z,14.60
2022-10-11T09:47:25.582Z,14.70
2022-10-11T09:49:59.166Z,14.70
2022-10-11T09:52:28.599Z,14.90
2022-10-11T09:54:59.858Z,14.80
2022-10-11T09:57:30.523Z,14.80
2022-10-11T10:00:01.207Z,14.60
2022-10-11T10:02:30.412Z,14.80
2022-10-11T10:05:05.807Z,15.00
2022-10-11T10:07:36.729Z,15.00
2022-10-11T10:10:28.925Z,14.80
2022-10-11T10:12:59.658Z,14.80
2022-10-11T10:15:30.867Z,14.70
2022-10-11T10:17:59.629Z,14.90
2022-10-11T10:20:31.576Z,14.90
2022-10-11T10:23:06.167Z,15.00
2022-10-11T10:25:43.086Z,15.10
2022-10-11T10:28:21.466Z,15.20
2022-10-11T10:30:55.251Z,15.10
2022-10-11T10:33:25.882Z,15.10
2022-10-11T10:35:57.890Z,15.10
2022-10-11T10:38:30.092Z,15.20
2022-10-11T10:41:03.395Z,15.10
2022-10-11T10:43:34.899Z,15.00
2022-10-11T10:46:30.842Z,15.00
2022-10-11T10:49:48.409Z,15.10
2022-10-11T10:52:03.165Z,15.10
2022-10-11T10:54:45.102Z,15.00
2022-10-11T10:57:21.524Z,15.00
2022-10-11T11:00:02.311Z,15.00
2022-10-11T11:02:41.278Z,14.80
2022-10-11T11:05:27.740Z,14.80
2022-10-11T11:08:07.164Z,14.80
2022-10-11T11:10:42.733Z,14.60
2022-10-11T11:13:20.514Z,14.60
2022-10-11T11:15:57.384Z,14.60
2022-10-11T11:18:34.875Z,14.60
2022-10-11T11:21:21.232Z,14.50
2022-10-11T11:23:57.310Z,14.60
2022-10-11T11:26:37.835Z,14.80
2022-10-11T11:29:22.659Z,14.80
2022-10-11T11:32:06.495Z,14.60
2022-10-11T11:34:39.389Z,14.40
2022-10-11T11:37:16.156Z,14.40
2022-10-11T11:39:49.462Z,14.40
2022-10-11T11:42:24.416Z,14.50
2022-10-11T11:44:53.223Z,14.60
2022-10-11T11:47:26.199Z,14.50
2022-10-11T11:49:59.128Z,14.40
2022-10-11T11:52:31.874Z,14.40
2022-10-11T11:55:10.468Z,14.60
2022-10-11T11:57:54.287Z,14.50
2022-10-11T12:00:24.322Z,14.50
2022-10-11T12:02:57.170Z,14.50
2022-10-11T12:05:28.031Z,14.50
2022-10-11T12:07:59.615Z,14.50
2022-10-11T12:10:35.255Z,14.50
2022-10-11T12:13:10.800Z,14.60
2022-10-11T12:15:39.074Z,14.50
2022-10-11T12:18:16.176Z,14.70
2022-10-11T12:20:45.027Z,14.60
2022-10-11T12:23:49.454Z,14.70
2022-10-11T12:26:34.129Z,14.70
2022-10-11T12:29:28.668Z,14.60
2022-10-11T12:32:53.354Z,14.70
2022-10-11T12:35:55.020Z,14.80
2022-10-11T12:38:25.023Z,14.80
2022-10-11T12:40:54.785Z,14.60
2022-10-11T12:43:33.069Z,14.50
2022-10-11T12:46:38.736Z,14.40
2022-10-11T12:49:31.049Z,14.30
2022-10-11T12:52:01.907Z,14.30
2022-10-11T12:54:59.723Z,14.30
2022-10-11T12:57:59.080Z,14.30
2022-10-11T13:00:31.161Z,14.30
2022-10-11T13:03:00.309Z,14.40
2022-10-11T13:05:36.046Z,14.30
2022-10-11T13:08:06.449Z,14.20
2022-10-11T13:10:42.476Z,14.20
2022-10-11T13:13:20.933Z,14.20
2022-10-11T13:15:49.362Z,14.20
2022-10-11T13:18:18.760Z,14.20
2022-10-11T13:20:48.205Z,14.30
2022-10-11T13:23:24.151Z,14.20
2022-10-11T13:25:52.983Z,14.20
2022-10-11T13:28:21.724Z,14.10
2022-10-11T13:30:53.131Z,14.20
2022-10-11T13:33:23.854Z,14.10
2022-10-11T13:35:53.956Z,14.10
2022-10-11T13:38:24.632Z,14.00
2022-10-11T13:40:53.307Z,13.90
2022-10-11T13:43:24.308Z,13.80
2022-10-11T13:45:53.051Z,13.90
2022-10-11T13:48:21.289Z,14.00
2022-10-11T13:51:09.000Z,13.80
2022-10-11T13:53:37.396Z,13.90
2022-10-11T13:56:08.814Z,14.00
2022-10-11T13:58:41.217Z,14.10
2022-10-11T14:01:20.645Z,14.10
2022-10-11T14:03:54.361Z,14.30
2022-10-11T14:06:24.071Z,14.30
2022-10-11T14:08:55.137Z,14.30
2022-10-11T14:11:34.639Z,14.40
2022-10-11T14:14:29.510Z,14.40
2022-10-11T14:16:58.579Z,14.30
2022-10-11T14:19:26.612Z,14.40
2022-10-11T14:21:56.033Z,14.40
2022-10-11T14:24:24.147Z,14.40
2022-10-11T14:26:54.563Z,14.40
2022-10-11T14:29:25.520Z,14.30
2022-10-11T14:32:00.487Z,14.10
2022-10-11T14:34:29.003Z,14.30
2022-10-11T14:36:58.422Z,14.20
2022-10-11T14:39:27.843Z,14.30
2022-10-11T14:41:55.827Z,14.10
2022-10-11T14:44:24.131Z,14.20
2022-10-11T14:46:54.748Z,14.30
2022-10-11T14:49:25.612Z,14.30
2022-10-11T14:51:55.054Z,14.30
2022-10-11T14:54:26.136Z,14.20
2022-10-11T14:56:57.161Z,14.30
2022-10-11T14:59:28.246Z,14.30
2022-10-11T15:01:56.516Z,14.30
2022-10-11T15:04:27.106Z,14.20
2022-10-11T15:06:57.086Z,14.10
2022-10-11T15:09:26.650Z,14.10
2022-10-11T15:11:55.380Z,14.10
2022-10-11T15:14:25.149Z,14.00
2022-10-11T15:16:53.571Z,13.90
2022-10-11T15:19:23.852Z,14.00
2022-10-11T15:21:52.571Z,13.90
2022-10-11T15:24:21.124Z,14.00
2022-10-11T15:26:50.960Z,14.00
2022-10-11T15:29:20.383Z,14.00
2022-10-11T15:31:49.250Z,14.00
2022-10-11T15:34:17.751Z,14.00
2022-10-11T15:36:45.885Z,13.90
2022-10-11T15:39:27.928Z,13.90
2022-10-11T15:41:58.863Z,13.80
2022-10-11T15:44:27.161Z,13.70
2022-10-11T15:46:55.197Z,13.70
2022-10-11T15:49:23.234Z,13.70
2022-10-11T15:51:51.324Z,13.60
2022-10-11T15:54:19.402Z,13.70
2022-10-11T15:56:47.703Z,13.70
2022-10-11T15:59:17.034Z,13.60
2022-10-11T16:01:45.073Z,13.60
2022-10-11T16:04:13.036Z,13.60
2022-10-11T16:06:41.955Z,13.60
2022-10-11T16:09:09.956Z,13.60
2022-10-11T16:11:38.003Z,13.60
2022-10-11T16:14:06.052Z,13.60
2022-10-11T16:16:35.362Z,13.50
2022-10-11T16:19:03.459Z,13.40
2022-10-11T16:21:31.427Z,13.10
2022-10-11T16:24:00.568Z,13.10
2022-10-11T16:26:28.565Z,13.20
2022-10-11T16:28:57.698Z,12.90
2022-10-11T16:31:25.765Z,13.00
2022-10-11T16:33:55.190Z,13.10
2022-10-11T16:36:35.922Z,13.20
2022-10-11T16:39:08.057Z,13.20
2022-10-11T16:41:36.111Z,13.20
2022-10-11T16:44:04.679Z,13.20
2022-10-11T16:46:33.739Z,13.20
2022-10-11T16:49:03.140Z,13.00
2022-10-11T16:51:31.202Z,13.00
2022-10-11T16:53:59.147Z,13.00
2022-10-11T16:56:27.809Z,13.00
2022-10-11T16:58:56.343Z,13.00
2022-10-11T17:01:24.447Z,12.90
2022-10-11T17:03:53.015Z,12.80
2022-10-11T17:06:22.575Z,12.90
2022-10-11T17:08:50.883Z,12.90
2022-10-11T17:11:19.397Z,12.90
2022-10-11T17:13:48.427Z,12.80
2022-10-11T17:16:17.662Z,12.80
2022-10-11T17:18:46.279Z,12.70
2022-10-11T17:21:17.527Z,12.70
2022-10-11T17:23:48.421Z,12.60
2022-10-11T17:26:19.179Z,12.50
2022-10-11T17:28:47.767Z,12.60
2022-10-11T17:31:16.614Z,12.60
2022-10-11T17:33:44.798Z,12.60
2022-10-11T17:36:23.054Z,12.60
2022-10-11T17:38:53.447Z,12.60
2022-10-11T17:41:21.846Z,12.60
2022-10-11T17:43:50.255Z,12.60
2022-10-11T17:46:21.539Z,12.60
2022-10-11T17:48:50.261Z,12.50
2022-10-11T17:51:41.870Z,12.50
2022-10-11T17:54:14.520Z,12.50
2022-10-11T17:56:43.353Z,12.40
2022-10-11T17:59:17.133Z,12.40
2022-10-11T18:01:46.820Z,12.40
2022-10-11T18:04:17.616Z,12.40
2022-10-11T18:06:46.878Z,12.40
2022-10-11T18:09:19.222Z,12.40
2022-10-11T18:11:47.735Z,12.30
2022-10-11T18:14:16.518Z,12.40
2022-10-11T18:16:44.807Z,12.40
2022-10-11T18:19:14.086Z,12.40
2022-10-11T18:21:42.400Z,12.40
2022-10-11T18:24:15.902Z,12.30
2022-10-11T18:26:46.371Z,12.30
2022-10-11T18:29:14.492Z,12.30
2022-10-11T18:31:43.339Z,12.40
2022-10-11T18:34:13.793Z,12.30
2022-10-11T18:36:42.344Z,12.20
2022-10-11T18:39:13.382Z,12.20
2022-10-11T18:41:44.318Z,12.10
2022-10-11T18:44:15.549Z,12.20
2022-10-11T18:46:45.066Z,12.20
2022-10-11T18:49:14.506Z,12.20
2022-10-11T18:51:44.198Z,12.20
2022-10-11T18:54:16.747Z,12.10
2022-10-11T18:56:48.370Z,12.20
2022-10-11T18:59:18.037Z,11.90
2022-10-11T19:01:46.475Z,11.60
2022-10-11T19:04:16.733Z,11.60
2022-10-11T19:06:47.623Z,11.60
2022-10-11T19:09:21.368Z,11.60
2022-10-11T19:11:50.853Z,11.50
2022-10-11T19:14:23.264Z,11.40
2022-10-11T19:16:52.633Z,11.40
2022-10-11T19:19:22.560Z,11.30
2022-10-11T19:21:50.598Z,11.40
2022-10-11T19:24:20.627Z,11.40
2022-10-11T19:26:49.000Z,11.40
2022-10-11T19:29:19.770Z,11.50
2022-10-11T19:31:52.086Z,11.60
2022-10-11T19:34:20.542Z,11.60
2022-10-11T19:36:50.696Z,11.50
2022-10-11T19:39:19.462Z,11.50
2022-10-11T19:41:47.651Z,11.50
2022-10-11T19:44:16.683Z,11.60
2022-10-11T19:46:51.539Z,11.60
2022-10-11T19:49:23.950Z,11.60
2022-10-11T19:51:52.657Z,11.70
2022-10-11T19:54:20.786Z,11.60
2022-10-11T19:56:49.118Z,11.60
2022-10-11T19:59:17.491Z,11.50
2022-10-11T20:01:51.910Z,11.50
2022-10-11T20:04:50.390Z,11.40
2022-10-11T20:07:11.329Z,11.40
2022-10-11T20:09:39.434Z,11.40
2022-10-11T20:12:07.941Z,11.40
2022-10-11T20:14:40.143Z,11.40
2022-10-11T20:17:08.402Z,11.40
2022-10-11T20:19:37.786Z,11.30
2022-10-11T20:22:05.786Z,11.30
2022-10-11T20:24:34.593Z,11.20
2022-10-11T20:27:03.909Z,11.20
2022-10-11T20:29:32.110Z,11.30
2022-10-11T20:32:00.071Z,11.30
2022-10-11T20:34:28.857Z,11.30
2022-10-11T20:36:58.180Z,11.30
2022-10-11T20:39:26.325Z,11.30
2022-10-11T20:41:54.366Z,11.30
2022-10-11T20:44:22.302Z,11.20
2022-10-11T20:46:50.747Z,11.10
2022-10-11T20:49:19.855Z,11.10
2022-10-11T20:51:47.957Z,11.10
2022-10-11T20:54:18.045Z,11.10
2022-10-11T20:56:46.013Z,11.20
2022-10-11T20:59:14.051Z,11.10
2022-10-11T21:01:42.466Z,11.10
2022-10-11T21:04:17.315Z,11.00
2022-10-11T21:06:45.376Z,11.00
2022-10-11T21:09:15.662Z,11.00
2022-10-11T21:11:47.070Z,10.90
2022-10-11T21:14:15.156Z,10.90
2022-10-11T21:16:43.231Z,10.90
2022-10-11T21:19:16.152Z,11.00
2022-10-11T21:21:46.411Z,11.00
2022-10-11T21:24:16.432Z,11.00
2022-10-11T21:26:45.849Z,11.00
2022-10-11T21:29:13.850Z,11.00
2022-10-11T21:31:41.850Z,10.90
2022-10-11T21:34:09.962Z,10.90
2022-10-11T21:36:38.079Z,10.90
2022-10-11T21:39:06.016Z,11.00
2022-10-11T21:41:34.059Z,11.00
2022-10-11T21:44:03.363Z,11.00
2022-10-11T21:47:01.339Z,10.90
2022-10-11T21:49:21.024Z,10.90
2022-10-11T21:51:49.041Z,10.90
2022-10-11T21:54:17.183Z,10.80
2022-10-11T21:56:45.241Z,10.70
2022-10-11T21:59:14.686Z,10.80
2022-10-11T22:01:43.842Z,10.80
2022-10-11T22:04:12.521Z,10.80
2022-10-11T22:06:40.894Z,10.80
2022-10-11T22:09:09.411Z,10.80
2022-10-11T22:11:38.144Z,10.50
2022-10-11T22:14:06.309Z,10.20
2022-10-11T22:16:36.272Z,10.10
2022-10-11T22:19:04.622Z,10.00
2022-10-11T22:21:32.679Z,9.90
2022-10-11T22:24:00.896Z,9.90
2022-10-11T22:26:30.988Z,9.80
2022-10-11T22:28:59.366Z,9.70
2022-10-11T22:31:27.744Z,9.60
2022-10-11T22:33:58.305Z,9.60
2022-10-11T22:36:27.201Z,9.60
2022-10-11T22:38:55.439Z,9.60
2022-10-11T22:41:24.191Z,9.50
2022-10-11T22:43:52.438Z,9.50
2022-10-11T22:46:20.430Z,9.50
2022-10-11T22:48:48.443Z,9.50
2022-10-11T22:51:17.774Z,9.40
2022-10-11T22:53:45.798Z,9.30
2022-10-11T22:56:13.867Z,9.20
2022-10-11T22:58:41.937Z,9.30
2022-10-11T23:01:10.849Z,9.30
2022-10-11T23:03:39.020Z,9.30
2022-10-11T23:06:07.320Z,9.30
2022-10-11T23:08:36.675Z,9.30
2022-10-11T23:11:06.350Z,9.30
2022-10-11T23:13:34.612Z,9.20
2022-10-11T23:16:07.285Z,9.20
2022-10-11T23:18:35.519Z,9.10
2022-10-11T23:21:03.895Z,9.00
2022-10-11T23:23:32.072Z,9.00
2022-10-11T23:26:08.950Z,8.90
2022-10-11T23:28:37.086Z,8.80
2022-10-11T23:31:09.619Z,8.70
2022-10-11T23:33:37.707Z,8.70
2022-10-11T23:36:06.715Z,8.60
2022-10-11T23:38:34.650Z,8.60
2022-10-11T23:41:02.562Z,8.70
2022-10-11T23:43:31.882Z,8.60
2022-10-11T23:46:00.373Z,8.50
2022-10-11T23:48:28.469Z,8.50
2022-10-11T23:50:56.895Z,8.50
2022-10-11T23:53:25.168Z,8.60
2022-10-11T23:55:53.136Z,8.60
2022-10-11T23:58:21.092Z,8.60
